Tampa, Florida
Traffic Map
Current Weather Conditions
Tampa, Florida
Broken Clouds
Broken Clouds
27°
Feels Like: 30°
Wind Chill: 27° Ceiling: 13000
Heat Index: 30° Visibility: 10mi
Dew Point: 23° Wind: 8mph
Humidity: 77% Direction: 130° (SE)
Pressure: 30.04in Gusts: 0mph
Raw Report DataKTPA 221353Z 13007KT 10SM FEW014 BKN130 BKN250 27/23 A3004 RMK AO2 SLP172 T02720228
Traffic Incident Summary
Active as of:
Severity:
Category:
InformationThere was an issue retrieving the traffic information for this location. Please try a different location or try again shortly.
Advertisements
Track Severe Weather on mobile